Time;durP1;ratioP1;P1;durP2;ratioP2;P2;SDS_P1;SDS_P2;PMS_P1;PMS_P2;Temp;Humidity;BMP_temperature;BMP_pressure;BME280_temperature;BME280_humidity;BME280_pressure;Samples;Min_cycle;Max_cycle;Signal;HPM_P1;HPM_P2
2022/06/07 00:00:18;;;;;;;18.37;11.37;;;12.50;99.90;;;;;;5106433;27;20039;-77
2022/06/07 00:02:43;;;;;;;16.57;11.60;;;12.50;99.90;;;;;;5141230;27;20050;-76
2022/06/07 00:05:09;;;;;;;18.00;12.20;;;12.50;99.90;;;;;;5132587;27;20047;-77
2022/06/07 00:07:37;;;;;;;19.43;13.57;;;12.50;99.90;;;;;;5115644;27;20045;-77
2022/06/07 00:10:04;;;;;;;23.63;14.27;;;12.50;99.90;;;;;;5130970;27;20134;-78
2022/06/07 00:12:29;;;;;;;23.87;15.57;;;12.50;99.90;;;;;;5132618;27;20047;-78
2022/06/07 00:14:55;;;;;;;24.00;15.73;;;12.50;99.90;;;;;;5147732;27;20042;-77
2022/06/07 00:17:22;;;;;;;24.03;16.00;;;12.50;99.90;;;;;;5122657;27;20381;-77
2022/06/07 00:19:48;;;;;;;26.87;16.60;;;12.50;99.90;;;;;;5135458;27;20050;-76
2022/06/07 00:22:14;;;;;;;21.53;15.20;;;12.50;99.90;;;;;;5118741;27;20053;-77
2022/06/07 00:24:41;;;;;;;24.40;16.10;;;12.50;99.90;;;;;;5133337;27;20050;-78
2022/06/07 00:27:07;;;;;;;22.73;15.70;;;12.50;99.90;;;;;;5138878;27;20496;-77
2022/06/07 00:29:34;;;;;;;25.03;16.90;;;12.50;99.90;;;;;;5120754;27;20053;-77
2022/06/07 00:32:01;;;;;;;22.87;16.77;;;12.50;99.90;;;;;;5117840;27;20050;-78
2022/06/07 00:34:27;;;;;;;23.07;17.10;;;12.50;99.90;;;;;;5134396;27;20514;-77
2022/06/07 00:36:53;;;;;;;27.07;18.10;;;12.50;99.90;;;;;;5126032;27;20043;-78
2022/06/07 00:39:19;;;;;;;26.67;17.87;;;12.50;99.90;;;;;;5117701;27;20045;-78
2022/06/07 00:41:46;;;;;;;23.80;16.03;;;12.50;99.90;;;;;;5107944;27;20243;-78
2022/06/07 00:44:37;;;;;;;23.77;17.97;;;12.60;99.90;;;;;;5120934;27;20047;-79
2022/06/07 00:47:08;;;;;;;22.07;17.50;;;12.60;99.90;;;;;;5099121;27;20046;-78
2022/06/07 00:49:37;;;;;;;23.10;17.33;;;12.60;99.90;;;;;;5121841;27;20046;-77
2022/06/07 00:52:04;;;;;;;30.83;17.80;;;12.60;99.90;;;;;;5114248;27;20525;-77
2022/06/07 00:54:32;;;;;;;20.00;15.67;;;12.60;99.90;;;;;;5102141;27;20446;-78
2022/06/07 00:57:07;;;;;;;21.70;16.43;;;12.60;99.90;;;;;;5127653;27;20042;-77
2022/06/07 00:59:36;;;;;;;19.93;16.10;;;12.60;99.90;;;;;;5131593;27;20090;-77
2022/06/07 01:02:04;;;;;;;22.60;16.53;;;12.60;99.90;;;;;;5106137;27;20070;-78
2022/06/07 01:04:30;;;;;;;21.47;15.87;;;12.60;99.90;;;;;;5125665;27;20046;-77
2022/06/07 01:12:32;;;;;;;21.23;16.53;;;12.70;99.90;;;;;;5128467;27;20117;-76
2022/06/07 01:14:58;;;;;;;20.93;15.50;;;12.70;99.90;;;;;;5122396;27;20126;-78
2022/06/07 01:17:25;;;;;;;22.57;17.07;;;12.70;99.90;;;;;;5119571;27;20039;-77
2022/06/07 01:19:52;;;;;;;21.73;17.23;;;12.70;99.90;;;;;;5128127;27;20377;-77
2022/06/07 01:22:19;;;;;;;19.93;16.87;;;12.70;99.90;;;;;;5108258;27;20087;-77
2022/06/07 01:24:46;;;;;;;21.60;17.63;;;12.70;99.90;;;;;;5119526;27;20043;-77
2022/06/07 01:27:12;;;;;;;23.23;17.30;;;12.70;99.90;;;;;;5122435;27;20045;-77
2022/06/07 01:29:39;;;;;;;22.17;18.97;;;12.80;99.90;;;;;;5125105;27;20122;-77
2022/06/07 01:32:08;;;;;;;24.53;19.30;;;12.80;99.90;;;;;;5114586;27;20081;-76
2022/06/07 01:34:34;;;;;;;23.13;18.87;;;12.80;99.90;;;;;;5117782;27;20522;-78
2022/06/07 01:37:00;;;;;;;25.83;19.87;;;12.80;99.90;;;;;;5123838;27;20050;-77
2022/06/07 01:42:29;;;;;;;26.73;20.60;;;12.80;99.90;;;;;;5077662;27;20087;-76
2022/06/07 01:44:56;;;;;;;24.17;19.70;;;12.80;99.90;;;;;;5112332;27;20061;-77
2022/06/07 01:47:24;;;;;;;23.70;20.53;;;12.80;99.90;;;;;;5122745;27;20034;-77
2022/06/07 01:49:54;;;;;;;28.30;19.67;;;12.80;99.90;;;;;;5116018;27;20046;-76
2022/06/07 01:52:23;;;;;;;24.53;18.47;;;12.80;99.90;;;;;;5122487;28;20076;-78
2022/06/07 01:54:55;;;;;;;19.43;16.43;;;12.80;99.90;;;;;;5113215;27;20499;-78
2022/06/07 01:57:22;;;;;;;23.67;17.23;;;12.90;99.90;;;;;;5125721;27;20083;-78
2022/06/07 01:59:50;;;;;;;20.37;15.77;;;12.80;99.90;;;;;;5120360;27;20050;-77
2022/06/07 02:02:24;;;;;;;20.23;16.17;;;12.80;99.90;;;;;;5124036;27;20437;-77
2022/06/07 02:04:50;;;;;;;20.93;16.00;;;12.80;99.90;;;;;;5117320;27;20430;-76
2022/06/07 02:07:18;;;;;;;21.90;14.77;;;12.80;99.90;;;;;;5123972;27;20043;-76
2022/06/07 02:09:48;;;;;;;19.00;15.07;;;12.80;99.90;;;;;;5128865;27;20046;-77
2022/06/07 02:12:16;;;;;;;17.77;14.37;;;12.90;99.90;;;;;;5123661;27;20087;-77
2022/06/07 02:14:42;;;;;;;19.67;15.33;;;12.90;99.90;;;;;;5126118;27;20071;-78
2022/06/07 02:17:08;;;;;;;19.57;14.23;;;12.90;99.90;;;;;;5122018;27;20043;-77
2022/06/07 02:19:44;;;;;;;21.33;16.03;;;12.90;99.90;;;;;;5128878;27;20096;-79
2022/06/07 02:22:10;;;;;;;20.03;14.40;;;12.90;99.90;;;;;;5122293;27;20428;-77
2022/06/07 02:24:36;;;;;;;19.17;14.40;;;12.90;99.90;;;;;;5132338;27;20057;-77
2022/06/07 02:27:07;;;;;;;23.10;14.70;;;12.90;99.90;;;;;;5128646;27;20038;-78
2022/06/07 02:29:38;;;;;;;23.03;15.17;;;12.90;99.90;;;;;;5123074;27;20043;-77
2022/06/07 02:32:09;;;;;;;20.67;14.50;;;12.90;99.90;;;;;;5125990;27;20078;-78
2022/06/07 02:34:38;;;;;;;18.03;14.30;;;12.90;99.90;;;;;;5128856;27;20035;-78
2022/06/07 02:37:06;;;;;;;22.43;15.40;;;12.90;99.90;;;;;;5124904;27;20046;-77
2022/06/07 02:39:34;;;;;;;18.93;14.43;;;12.90;99.90;;;;;;5129605;27;20053;-77
2022/06/07 02:42:01;;;;;;;21.80;15.63;;;12.90;99.90;;;;;;5140150;27;20053;-77
2022/06/07 02:44:27;;;;;;;21.67;15.40;;;12.90;99.90;;;;;;5114018;27;20030;-79
2022/06/07 02:46:54;;;;;;;24.60;15.07;;;12.90;99.90;;;;;;5120272;27;20047;-79
2022/06/07 02:49:20;;;;;;;21.30;15.87;;;12.90;99.90;;;;;;5117291;27;20046;-77
2022/06/07 02:51:46;;;;;;;20.57;14.87;;;12.90;99.90;;;;;;5122532;27;20057;-78
2022/06/07 02:54:12;;;;;;;18.60;14.37;;;12.90;99.90;;;;;;5116494;27;20050;-77
2022/06/07 02:56:38;;;;;;;21.03;14.23;;;12.90;99.90;;;;;;5127020;27;20073;-78
2022/06/07 02:59:05;;;;;;;19.43;14.27;;;12.90;99.90;;;;;;5138098;27;20038;-78
2022/06/07 03:01:31;;;;;;;21.97;14.67;;;12.90;99.90;;;;;;5133993;27;20527;-78
2022/06/07 03:04:00;;;;;;;20.30;14.30;;;12.90;99.90;;;;;;5112410;27;20081;-76
2022/06/07 03:06:30;;;;;;;21.13;14.70;;;12.90;99.90;;;;;;5123858;27;20058;-77
2022/06/07 03:08:56;;;;;;;19.93;14.77;;;12.90;99.90;;;;;;5121286;27;20039;-78
2022/06/07 03:11:22;;;;;;;22.20;15.50;;;12.90;99.90;;;;;;5111007;27;20107;-79
2022/06/07 03:13:49;;;;;;;18.93;13.60;;;12.90;99.90;;;;;;5128084;27;20040;-78
2022/06/07 03:16:21;;;;;;;21.03;14.57;;;12.90;99.90;;;;;;5124606;27;20045;-78
2022/06/07 03:18:49;;;;;;;18.07;13.37;;;12.90;99.90;;;;;;5126710;27;20137;-79
2022/06/07 03:21:17;;;;;;;18.17;13.67;;;12.90;99.90;;;;;;5115187;27;20046;-78
2022/06/07 03:23:46;;;;;;;15.27;13.53;;;12.90;99.90;;;;;;5138182;27;20508;-78
2022/06/07 03:26:13;;;;;;;21.50;13.67;;;12.90;99.90;;;;;;5122713;27;20103;-77
2022/06/07 03:28:50;;;;;;;21.30;13.90;;;12.90;99.90;;;;;;5120032;27;20400;-77
2022/06/07 03:31:18;;;;;;;21.27;14.40;;;12.90;99.90;;;;;;5117658;27;20031;-78
2022/06/07 03:33:48;;;;;;;20.80;15.07;;;12.90;99.90;;;;;;5119128;27;20035;-77
2022/06/07 03:36:20;;;;;;;21.00;15.13;;;12.90;99.90;;;;;;5115877;27;20074;-77
2022/06/07 03:38:47;;;;;;;20.07;14.90;;;12.90;99.90;;;;;;5118523;27;20496;-77
2022/06/07 03:41:17;;;;;;;22.10;15.70;;;12.90;99.90;;;;;;5118919;27;20087;-77
2022/06/07 03:43:44;;;;;;;21.03;14.60;;;12.90;99.90;;;;;;5123861;27;20047;-78
2022/06/07 03:46:12;;;;;;;19.50;15.60;;;12.90;99.90;;;;;;5126736;27;20488;-76
2022/06/07 03:48:40;;;;;;;19.73;15.27;;;12.90;99.90;;;;;;5139829;27;20095;-78
2022/06/07 03:51:08;;;;;;;19.53;15.37;;;12.90;99.90;;;;;;5110266;27;20038;-77
2022/06/07 03:53:37;;;;;;;19.63;14.77;;;12.90;99.90;;;;;;5124939;27;20053;-77
2022/06/07 03:56:04;;;;;;;19.80;14.70;;;13.00;99.90;;;;;;5121715;27;20053;-78
2022/06/07 03:58:38;;;;;;;21.87;15.67;;;13.00;99.90;;;;;;5130188;27;20053;-77
2022/06/07 04:01:06;;;;;;;19.00;14.87;;;13.00;99.90;;;;;;5108679;27;20043;-77
2022/06/07 04:03:32;;;;;;;19.57;14.93;;;12.90;99.90;;;;;;5136020;27;20386;-77
2022/06/07 04:05:58;;;;;;;21.67;15.50;;;13.00;99.90;;;;;;5106793;27;20041;-77
2022/06/07 04:08:28;;;;;;;22.50;15.73;;;12.90;99.90;;;;;;5118333;27;20435;-78
2022/06/07 04:10:58;;;;;;;21.97;14.77;;;13.00;99.90;;;;;;5118238;27;20088;-77
2022/06/07 04:13:32;;;;;;;19.93;14.90;;;13.00;99.90;;;;;;5125442;27;20415;-78
2022/06/07 04:16:05;;;;;;;20.53;14.60;;;13.00;99.90;;;;;;5122341;27;20042;-77
2022/06/07 04:18:33;;;;;;;19.17;14.83;;;13.00;99.90;;;;;;5126374;27;20057;-77
2022/06/07 04:20:59;;;;;;;19.90;15.40;;;13.00;99.90;;;;;;5130980;27;20035;-77
2022/06/07 04:23:26;;;;;;;20.03;14.43;;;13.00;99.90;;;;;;5116533;27;20042;-76
2022/06/07 04:25:53;;;;;;;21.10;14.93;;;13.00;99.90;;;;;;5128799;27;20091;-78
2022/06/07 04:28:20;;;;;;;19.47;14.10;;;13.00;99.90;;;;;;5134495;27;20035;-78
2022/06/07 04:30:49;;;;;;;18.27;14.50;;;13.00;99.90;;;;;;5137145;27;20118;-78
2022/06/07 04:33:20;;;;;;;17.80;13.60;;;13.00;99.90;;;;;;5121728;27;20445;-77
2022/06/07 04:35:49;;;;;;;21.07;14.30;;;13.00;99.90;;;;;;5131611;27;20038;-79
2022/06/07 04:38:20;;;;;;;17.93;13.73;;;13.10;99.90;;;;;;5122435;27;20435;-78
2022/06/07 04:40:46;;;;;;;20.90;15.47;;;13.00;99.90;;;;;;5121796;27;20039;-79
2022/06/07 04:43:14;;;;;;;21.37;14.57;;;13.00;99.90;;;;;;5121178;27;20049;-77
2022/06/07 04:45:42;;;;;;;19.20;14.27;;;13.00;99.90;;;;;;5127526;27;20042;-78
2022/06/07 04:48:11;;;;;;;21.73;14.40;;;13.00;99.90;;;;;;5118626;27;20043;-81
2022/06/07 04:50:45;;;;;;;18.33;14.20;;;13.00;99.90;;;;;;5129827;27;20046;-77
2022/06/07 04:53:13;;;;;;;20.57;14.10;;;13.00;99.90;;;;;;5113715;27;20050;-77
2022/06/07 04:55:39;;;;;;;18.67;13.77;;;13.00;99.90;;;;;;5119978;27;20042;-78
2022/06/07 04:58:05;;;;;;;19.80;14.83;;;13.10;99.90;;;;;;5108549;27;20492;-78
2022/06/07 05:00:31;;;;;;;20.27;14.97;;;13.10;99.90;;;;;;5111046;27;20254;-77
2022/06/07 05:03:02;;;;;;;18.47;13.77;;;13.10;99.90;;;;;;5136607;27;20545;-78
2022/06/07 05:05:32;;;;;;;24.83;14.37;;;13.10;99.90;;;;;;5106954;27;20046;-78
2022/06/07 05:08:04;;;;;;;21.20;14.63;;;13.10;99.90;;;;;;5120902;27;20057;-77
2022/06/07 05:10:29;;;;;;;19.70;14.83;;;13.10;99.90;;;;;;5115833;27;20053;-79
2022/06/07 05:13:00;;;;;;;26.77;15.53;;;13.10;99.90;;;;;;5108738;27;20049;-76
2022/06/07 05:15:30;;;;;;;19.97;15.40;;;13.10;99.90;;;;;;5132969;27;20504;-77
2022/06/07 05:18:03;;;;;;;19.90;14.87;;;13.10;99.90;;;;;;5115468;27;20047;-78
2022/06/07 05:20:31;;;;;;;18.17;14.20;;;13.10;99.90;;;;;;5133431;27;20053;-79
2022/06/07 05:23:06;;;;;;;18.50;13.93;;;13.10;99.90;;;;;;5132541;27;20130;-78
2022/06/07 05:25:34;;;;;;;23.13;14.87;;;13.10;99.90;;;;;;5111267;27;20039;-77
2022/06/07 05:28:00;;;;;;;21.40;15.07;;;13.20;99.90;;;;;;5113493;27;20039;-76
2022/06/07 05:30:29;;;;;;;22.50;14.93;;;13.20;99.90;;;;;;5115867;27;20050;-77
2022/06/07 05:33:02;;;;;;;19.67;14.93;;;13.20;99.90;;;;;;5107908;27;20057;-77
2022/06/07 05:35:33;;;;;;;20.57;14.70;;;13.20;99.90;;;;;;5119964;27;20043;-78
2022/06/07 05:38:11;;;;;;;20.67;15.07;;;13.20;99.90;;;;;;5114696;27;20050;-78
2022/06/07 05:40:37;;;;;;;19.37;15.30;;;13.20;99.90;;;;;;5125569;27;20559;-77
2022/06/07 05:43:04;;;;;;;20.27;15.27;;;13.20;99.90;;;;;;5125412;27;20412;-78
2022/06/07 05:45:39;;;;;;;22.97;15.27;;;13.20;99.90;;;;;;5130151;27;20095;-78
2022/06/07 05:48:13;;;;;;;22.50;15.37;;;13.20;99.90;;;;;;5127613;27;20046;-77
2022/06/07 05:50:48;;;;;;;22.10;15.38;;;13.20;99.90;;;;;;5120840;28;20496;-76
2022/06/07 05:53:15;;;;;;;22.50;15.17;;;13.20;99.90;;;;;;5112284;27;20043;-76
2022/06/07 05:55:41;;;;;;;23.47;16.27;;;13.20;99.90;;;;;;5130636;27;20038;-77
2022/06/07 05:58:07;;;;;;;18.27;15.10;;;13.20;99.90;;;;;;5114610;27;20504;-78
2022/06/07 06:00:34;;;;;;;20.33;15.93;;;13.20;99.90;;;;;;5105476;27;20046;-78
2022/06/07 06:03:01;;;;;;;22.10;15.70;;;13.20;99.90;;;;;;5112763;27;20392;-77
2022/06/07 06:05:36;;;;;;;24.25;16.55;;;13.20;99.90;;;;;;5123664;27;20488;-77
2022/06/07 06:11:02;;;;;;;19.87;15.03;;;13.20;99.90;;;;;;5129686;27;20612;-76
2022/06/07 06:13:29;;;;;;;20.30;15.40;;;13.20;99.90;;;;;;5134483;27;20035;-80
2022/06/07 06:16:01;;;;;;;21.60;16.13;;;13.20;99.90;;;;;;5124570;27;20080;-78
2022/06/07 06:18:27;;;;;;;23.43;16.13;;;13.20;99.90;;;;;;5117250;27;20043;-79
2022/06/07 06:20:55;;;;;;;22.47;15.13;;;13.20;99.90;;;;;;5124414;27;20053;-78
2022/06/07 06:23:24;;;;;;;23.83;15.63;;;13.20;99.90;;;;;;5122017;28;20122;-78
2022/06/07 06:25:51;;;;;;;20.73;15.93;;;13.20;99.90;;;;;;5113377;27;20043;-78
2022/06/07 06:28:17;;;;;;;24.33;18.27;;;13.20;99.90;;;;;;5133164;27;20100;-78
2022/06/07 06:30:44;;;;;;;26.00;16.07;;;13.10;99.90;;;;;;5132192;27;20520;-78
2022/06/07 06:33:18;;;;;;;27.83;17.10;;;13.10;99.90;;;;;;5114352;27;20125;-78
2022/06/07 06:35:48;;;;;;;25.27;18.43;;;13.10;99.90;;;;;;5137986;27;20050;-78
2022/06/07 06:38:16;;;;;;;29.47;19.07;;;13.00;99.90;;;;;;5109728;27;20540;-78
2022/06/07 06:40:43;;;;;;;29.20;18.90;;;13.00;99.90;;;;;;5118673;28;20047;-77
2022/06/07 06:43:10;;;;;;;28.33;18.27;;;13.00;99.90;;;;;;5121269;27;20081;-79
2022/06/07 06:46:03;;;;;;;26.03;18.63;;;13.00;99.90;;;;;;5121502;27;20054;-78
2022/06/07 06:48:30;;;;;;;22.00;14.63;;;12.90;99.90;;;;;;5135488;27;20043;-80
2022/06/07 06:50:59;;;;;;;19.10;12.83;;;12.80;99.90;;;;;;5118101;27;20054;-79
2022/06/07 06:53:27;;;;;;;20.10;12.63;;;12.80;99.90;;;;;;5121070;27;20038;-78
2022/06/07 06:55:57;;;;;;;18.07;12.03;;;12.60;99.90;;;;;;5127960;27;20050;-78
2022/06/07 06:58:25;;;;;;;22.63;12.10;;;12.60;99.90;;;;;;5109721;27;20046;-78
2022/06/07 07:01:00;;;;;;;18.10;11.70;;;12.60;99.90;;;;;;5112300;27;20035;-78
2022/06/07 07:03:26;;;;;;;20.17;11.93;;;12.60;99.90;;;;;;5123280;27;20495;-79
2022/06/07 07:05:52;;;;;;;17.73;12.07;;;12.60;99.90;;;;;;5133928;27;20054;-80
2022/06/07 07:08:19;;;;;;;21.17;12.33;;;12.60;99.90;;;;;;5116905;27;20496;-78
2022/06/07 07:10:46;;;;;;;22.57;13.27;;;12.60;99.90;;;;;;5119350;27;20131;-78
2022/06/07 07:13:12;;;;;;;22.50;14.00;;;12.70;99.90;;;;;;5122545;27;20043;-78
2022/06/07 07:15:38;;;;;;;20.67;14.70;;;12.70;99.90;;;;;;5114943;27;20046;-78
2022/06/07 07:18:09;;;;;;;21.47;13.87;;;12.80;99.90;;;;;;5123419;27;20038;-79
2022/06/07 07:20:44;;;;;;;24.63;14.70;;;12.80;99.90;;;;;;5117135;27;20047;-79
2022/06/07 07:23:10;;;;;;;26.27;13.13;;;12.90;99.90;;;;;;5123269;27;20057;-78
2022/06/07 07:25:37;;;;;;;15.27;10.63;;;13.00;99.90;;;;;;5116592;27;20170;-77
2022/06/07 07:28:05;;;;;;;17.57;10.53;;;13.00;99.90;;;;;;5126309;27;20051;-79
2022/06/07 07:30:33;;;;;;;13.73;9.53;;;13.10;99.90;;;;;;5124271;27;20045;-79
2022/06/07 07:32:59;;;;;;;15.07;8.50;;;13.10;99.90;;;;;;5121961;27;20273;-79
2022/06/07 07:35:25;;;;;;;20.10;8.93;;;13.10;99.90;;;;;;5108387;27;20058;-79
2022/06/07 07:37:59;;;;;;;15.13;8.23;;;13.10;99.90;;;;;;5135082;27;20031;-80
2022/06/07 07:40:26;;;;;;;14.83;8.20;;;13.10;99.90;;;;;;5127097;27;20046;-78
2022/06/07 07:42:52;;;;;;;12.23;8.20;;;13.10;99.90;;;;;;5123957;27;20043;-79
2022/06/07 07:45:27;;;;;;;15.35;7.30;;;13.00;99.90;;;;;;5124449;27;20039;-78
2022/06/07 07:47:57;;;;;;;14.73;7.70;;;13.00;99.90;;;;;;5122063;27;20042;-78
2022/06/07 07:50:24;;;;;;;15.57;6.73;;;13.10;99.90;;;;;;5106232;27;20228;-79
2022/06/07 07:52:53;;;;;;;18.30;7.43;;;13.10;99.90;;;;;;5121712;27;20065;-77
2022/06/07 07:55:19;;;;;;;12.33;6.40;;;13.10;99.90;;;;;;5126161;27;20039;-78
2022/06/07 07:57:48;;;;;;;8.83;6.30;;;13.00;99.90;;;;;;5107882;27;20039;-77
2022/06/07 08:00:19;;;;;;;10.73;5.80;;;13.00;99.90;;;;;;5118771;27;20441;-78
2022/06/07 08:02:55;;;;;;;11.03;5.40;;;13.10;99.90;;;;;;5124030;27;20117;-77
2022/06/07 08:05:30;;;;;;;13.13;5.37;;;13.10;99.90;;;;;;5111655;27;20042;-79
2022/06/07 08:07:55;;;;;;;12.40;6.03;;;13.10;99.90;;;;;;5122243;27;20042;-77
2022/06/07 08:10:21;;;;;;;14.63;6.37;;;13.20;99.90;;;;;;5113102;27;20053;-77
2022/06/07 08:12:47;;;;;;;10.67;5.60;;;13.30;99.90;;;;;;5126804;27;20069;-77
2022/06/07 08:15:13;;;;;;;17.00;5.90;;;13.20;99.90;;;;;;5118383;27;20047;-78
2022/06/07 08:17:39;;;;;;;12.20;5.70;;;13.30;99.90;;;;;;5124285;27;20617;-75
2022/06/07 08:20:07;;;;;;;14.97;6.10;;;13.30;99.90;;;;;;5136116;27;20046;-78
2022/06/07 08:22:33;;;;;;;14.00;6.03;;;13.30;99.90;;;;;;5120177;27;20039;-79
2022/06/07 08:24:59;;;;;;;12.33;6.13;;;13.30;99.90;;;;;;5130146;27;20149;-76
2022/06/07 08:27:25;;;;;;;13.97;6.50;;;13.30;99.90;;;;;;5136849;27;20606;-76
2022/06/07 08:29:50;;;;;;;16.87;6.90;;;13.30;99.90;;;;;;5131316;27;20042;-77
2022/06/07 08:32:16;;;;;;;14.53;6.93;;;13.30;99.90;;;;;;5136504;27;20524;-77
2022/06/07 08:37:34;;;;;;;15.73;7.43;;;13.20;99.90;;;;;;5118055;27;20373;-77
2022/06/07 08:40:00;;;;;;;16.30;7.88;;;13.10;99.90;;;;;;5127714;27;20039;-77
2022/06/07 08:42:29;;;;;;;16.37;8.30;;;13.10;99.90;;;;;;5139125;27;20074;-76
2022/06/07 08:44:57;;;;;;;18.23;7.40;;;13.10;99.90;;;;;;5128252;27;20099;-77
2022/06/07 08:47:31;;;;;;;14.90;7.53;;;13.20;99.90;;;;;;5110490;27;20487;-77
2022/06/07 08:50:00;;;;;;;13.80;7.25;;;13.20;99.90;;;;;;5126078;27;21041;-75
2022/06/07 08:52:31;;;;;;;16.27;7.53;;;13.20;99.90;;;;;;5127649;27;20047;-75
2022/06/07 08:55:02;;;;;;;20.77;8.10;;;13.30;99.90;;;;;;5128585;27;20042;-76
2022/06/07 08:57:30;;;;;;;18.37;7.30;;;13.30;99.90;;;;;;5124899;27;20038;-77
2022/06/07 09:00:02;;;;;;;15.13;7.87;;;13.30;99.90;;;;;;5136694;27;20145;-76
2022/06/07 09:02:46;;;;;;;19.73;8.10;;;13.30;99.90;;;;;;5133910;27;20468;-76
2022/06/07 09:05:14;;;;;;;12.77;8.15;;;13.40;99.90;;;;;;5139754;27;20053;-77
2022/06/07 09:07:42;;;;;;;16.13;8.90;;;13.40;99.90;;;;;;5125324;27;20190;-78
2022/06/07 09:13:00;;;;;;;21.30;10.20;;;13.30;99.90;;;;;;5135672;27;20596;-76
2022/06/07 09:15:28;;;;;;;18.90;9.67;;;13.30;99.90;;;;;;5139571;27;20176;-77
2022/06/07 09:17:58;;;;;;;21.93;10.87;;;13.20;99.90;;;;;;5123046;27;20091;-76
2022/06/07 09:20:26;;;;;;;23.23;11.67;;;13.20;99.90;;;;;;5119968;27;20495;-77
2022/06/07 09:22:57;;;;;;;20.80;11.07;;;13.20;99.90;;;;;;5126132;27;20038;-78
2022/06/07 09:25:26;;;;;;;20.77;11.90;;;13.20;99.90;;;;;;5123617;27;20061;-76
2022/06/07 09:27:53;;;;;;;23.63;12.03;;;13.20;99.90;;;;;;5124500;27;20126;-78
2022/06/07 09:30:24;;;;;;;20.63;12.23;;;13.20;99.90;;;;;;5110124;27;20042;-77
2022/06/07 09:32:51;;;;;;;19.93;12.20;;;13.20;99.90;;;;;;5131788;27;20043;-77
2022/06/07 09:35:21;;;;;;;19.73;11.83;;;13.20;99.90;;;;;;5109084;27;20091;-76
2022/06/07 09:37:51;;;;;;;23.07;11.70;;;13.20;99.90;;;;;;5127193;27;20046;-76
2022/06/07 09:40:27;;;;;;;18.30;11.80;;;13.20;99.90;;;;;;5120765;27;20067;-78
2022/06/07 09:42:57;;;;;;;17.67;10.77;;;13.20;99.90;;;;;;5124367;27;20062;-76
2022/06/07 09:45:27;;;;;;;23.83;11.13;;;13.30;99.90;;;;;;5120332;27;20537;-77
2022/06/07 09:47:53;;;;;;;22.97;10.07;;;13.20;99.90;;;;;;5135465;27;20445;-78
2022/06/07 09:50:22;;;;;;;20.03;10.67;;;13.20;99.90;;;;;;5117884;27;20125;-79
2022/06/07 09:52:52;;;;;;;19.57;10.50;;;13.20;99.90;;;;;;5128912;27;20560;-78
2022/06/07 09:55:30;;;;;;;21.27;10.93;;;13.30;99.90;;;;;;5134291;27;20043;-77
2022/06/07 09:58:09;;;;;;;22.90;10.77;;;13.40;99.90;;;;;;5123144;27;20573;-77
2022/06/07 10:00:42;;;;;;;24.23;10.87;;;13.50;99.90;;;;;;5133789;27;20088;-78
2022/06/07 10:03:32;;;;;;;14.77;8.27;;;13.60;99.90;;;;;;5140223;27;20046;-78
2022/06/07 10:06:08;;;;;;;20.60;9.20;;;13.60;99.90;;;;;;5120158;27;20042;-78
2022/06/07 10:08:54;;;;;;;13.93;7.73;;;13.60;99.90;;;;;;5106075;27;20077;-79
2022/06/07 10:11:28;;;;;;;16.93;7.67;;;13.60;99.90;;;;;;5115921;27;20043;-78
2022/06/07 10:14:06;;;;;;;13.50;7.03;;;13.50;99.90;;;;;;5123104;27;20047;-79
2022/06/07 10:16:43;;;;;;;14.90;7.60;;;13.40;99.90;;;;;;5125324;27;20062;-78
2022/06/07 10:19:30;;;;;;;14.70;6.77;;;13.40;99.90;;;;;;5109555;27;20042;-78
2022/06/07 10:22:19;;;;;;;13.10;6.40;;;13.40;99.90;;;;;;5138096;27;20046;-78
2022/06/07 10:24:56;;;;;;;15.60;7.07;;;13.40;99.90;;;;;;5119902;27;20042;-78
2022/06/07 10:27:32;;;;;;;19.97;6.63;;;13.30;99.90;;;;;;5126082;27;20039;-78
2022/06/07 10:30:15;;;;;;;14.17;6.00;;;13.30;99.90;;;;;;5125827;27;20043;-79
2022/06/07 10:33:01;;;;;;;13.27;6.07;;;13.30;99.90;;;;;;5131101;27;20108;-78
2022/06/07 10:35:39;;;;;;;10.50;6.27;;;13.30;99.90;;;;;;5103426;27;20053;-78
2022/06/07 10:38:26;;;;;;;15.07;6.37;;;13.40;99.90;;;;;;5109502;27;20488;-78
2022/06/07 10:41:03;;;;;;;13.13;6.37;;;13.30;99.90;;;;;;5123640;27;20069;-79
2022/06/07 10:43:37;;;;;;;12.53;5.73;;;13.30;99.90;;;;;;5122253;27;20129;-78
2022/06/07 10:46:10;;;;;;;11.60;6.03;;;13.30;99.90;;;;;;5137306;27;20116;-78
2022/06/07 10:48:42;;;;;;;16.73;6.00;;;13.40;99.90;;;;;;5134714;27;20488;-77
2022/06/07 10:54:01;;;;;;;11.50;5.53;;;13.40;99.90;;;;;;5120538;27;20187;-78
2022/06/07 10:56:31;;;;;;;11.70;5.30;;;13.40;99.90;;;;;;5137463;27;20523;-79
2022/06/07 10:59:01;;;;;;;13.83;5.43;;;13.40;99.90;;;;;;5119025;27;20109;-79
2022/06/07 11:01:32;;;;;;;12.07;6.10;;;13.40;99.90;;;;;;5129164;27;20209;-77
2022/06/07 11:04:06;;;;;;;12.13;5.93;;;13.40;99.90;;;;;;5129038;27;20046;-78
2022/06/07 11:09:22;;;;;;;9.37;6.10;;;13.50;99.90;;;;;;5140320;27;19974;-79
2022/06/07 11:11:51;;;;;;;11.33;6.40;;;13.40;99.90;;;;;;5111519;27;20046;-78
2022/06/07 11:14:46;;;;;;;13.10;6.37;;;13.40;99.90;;;;;;5116694;27;20066;-79
2022/06/07 11:17:28;;;;;;;13.27;5.97;;;13.40;99.90;;;;;;5111232;27;20556;-78
2022/06/07 11:19:59;;;;;;;6.93;3.87;;;13.30;99.90;;;;;;5111990;27;20129;-80
2022/06/07 11:22:34;;;;;;;5.07;3.47;;;13.40;99.90;;;;;;5128380;27;20039;-80
2022/06/07 11:25:18;;;;;;;7.10;4.00;;;13.30;99.90;;;;;;5129067;27;20039;-78
2022/06/07 11:27:50;;;;;;;;;;;13.30;99.90;;;;;;5138990;27;20492;-78
2022/06/07 11:30:39;;;;;;;5.00;2.97;;;13.30;99.90;;;;;;5111005;27;19923;-79
2022/06/07 11:33:29;;;;;;;4.13;2.50;;;13.30;99.90;;;;;;5129328;27;20053;-79
2022/06/07 11:36:06;;;;;;;4.93;2.30;;;13.30;99.90;;;;;;5147724;27;20559;-80
2022/06/07 11:38:34;;;;;;;6.63;2.83;;;13.20;99.90;;;;;;5145684;27;20046;-79
2022/06/07 11:41:48;;;;;;;5.60;2.73;;;13.20;99.90;;;;;;5129036;27;20415;-76
2022/06/07 11:44:58;;;;;;;5.73;2.90;;;13.30;99.90;;;;;;5137521;27;20035;-78
2022/06/07 11:48:01;;;;;;;5.10;2.20;;;13.30;99.90;;;;;;5136446;27;20043;-79
2022/06/07 11:50:30;;;;;;;3.87;1.90;;;13.30;99.90;;;;;;5115699;27;20123;-77
2022/06/07 11:53:10;;;;;;;6.57;2.10;;;13.30;99.90;;;;;;5121639;27;20035;-78
2022/06/07 11:55:40;;;;;;;6.93;2.10;;;13.30;99.90;;;;;;5111821;27;20031;-79
2022/06/07 11:58:07;;;;;;;4.73;2.20;;;13.30;99.90;;;;;;5125921;27;20043;-79
2022/06/07 12:00:46;;;;;;;6.33;2.40;;;13.30;99.90;;;;;;5138498;27;20412;-78
2022/06/07 12:03:33;;;;;;;5.57;2.40;;;13.30;99.90;;;;;;5126513;27;20117;-78
2022/06/07 12:06:19;;;;;;;4.73;2.50;;;13.30;99.90;;;;;;5124709;27;20046;-77
2022/06/07 12:08:52;;;;;;;5.13;2.07;;;13.30;99.90;;;;;;5125332;27;20042;-78
2022/06/07 12:11:23;;;;;;;6.28;2.35;;;13.40;99.90;;;;;;5111776;27;20042;-78
2022/06/07 12:13:58;;;;;;;3.87;2.30;;;13.50;99.90;;;;;;5130297;27;20076;-77
2022/06/07 12:16:28;;;;;;;5.30;2.40;;;13.50;99.90;;;;;;5124981;27;20408;-78
2022/06/07 12:18:57;;;;;;;6.20;2.80;;;13.60;99.90;;;;;;5140426;27;20046;-79
2022/06/07 12:21:24;;;;;;;5.73;2.63;;;13.70;99.90;;;;;;5126326;27;20039;-77
2022/06/07 12:23:52;;;;;;;7.23;2.93;;;13.70;99.90;;;;;;5134046;27;20046;-77
2022/06/07 12:26:20;;;;;;;7.70;3.17;;;13.80;99.90;;;;;;5119940;27;20045;-79
2022/06/07 12:28:50;;;;;;;6.33;3.60;;;13.90;99.90;;;;;;5108979;27;20173;-78
2022/06/07 12:31:24;;;;;;;5.73;2.77;;;13.90;99.90;;;;;;5138199;27;20053;-77
2022/06/07 12:33:51;;;;;;;4.78;2.42;;;13.90;99.90;;;;;;5144282;27;20141;-78
2022/06/07 12:36:21;;;;;;;6.10;2.60;;;13.90;99.90;;;;;;5119382;27;20071;-79
2022/06/07 12:38:48;;;;;;;7.53;2.50;;;13.90;99.90;;;;;;5128526;27;20046;-80
2022/06/07 12:41:17;;;;;;;6.53;2.73;;;13.90;99.90;;;;;;5126508;27;20404;-79
2022/06/07 12:43:45;;;;;;;6.97;2.97;;;14.00;99.90;;;;;;5136978;27;20047;-78
2022/06/07 12:46:23;;;;;;;7.77;2.70;;;13.90;99.90;;;;;;5127044;27;20043;-78
2022/06/07 12:48:51;;;;;;;8.50;3.00;;;14.00;99.90;;;;;;5129969;27;20039;-77
2022/06/07 12:51:26;;;;;;;14.00;3.80;;;14.00;99.90;;;;;;5117736;27;20039;-78
2022/06/07 12:53:58;;;;;;;7.83;3.20;;;14.00;99.90;;;;;;5135730;27;20078;-78
2022/06/07 12:56:28;;;;;;;7.63;2.93;;;14.10;99.90;;;;;;5112436;27;20027;-78
2022/06/07 12:58:56;;;;;;;6.73;2.77;;;14.00;99.90;;;;;;5110589;27;20047;-78
2022/06/07 13:01:25;;;;;;;10.17;3.33;;;14.00;99.90;;;;;;5126922;27;20429;-77
2022/06/07 13:03:54;;;;;;;13.10;3.40;;;14.10;99.90;;;;;;5135509;27;20047;-77
2022/06/07 13:06:22;;;;;;;9.57;2.70;;;14.10;99.90;;;;;;5137739;27;20484;-79
2022/06/07 13:09:00;;;;;;;9.30;3.10;;;14.20;99.90;;;;;;5117396;27;21546;-78
2022/06/07 13:11:27;;;;;;;8.87;3.00;;;14.30;99.90;;;;;;5123828;27;20039;-77